createdAt,value
2019-05-30T00:00:57.900Z,7.30
2019-05-30T00:03:28.867Z,6.93
2019-05-30T00:06:00.525Z,9.17
2019-05-30T00:08:32.768Z,13.07
2019-05-30T00:11:04.871Z,7.07
2019-05-30T00:13:35.884Z,6.30
2019-05-30T00:16:06.870Z,6.80
2019-05-30T00:18:37.907Z,6.73
2019-05-30T00:21:08.726Z,5.23
2019-05-30T00:23:39.571Z,5.87
2019-05-30T00:26:10.577Z,7.03
2019-05-30T00:28:41.436Z,8.83
2019-05-30T00:31:12.430Z,7.67
2019-05-30T00:33:43.519Z,8.03
2019-05-30T00:36:14.342Z,5.47
2019-05-30T00:38:45.278Z,10.57
2019-05-30T00:41:16.228Z,6.13
2019-05-30T00:43:47.277Z,6.67
2019-05-30T00:46:18.213Z,10.43
2019-05-30T00:48:50.485Z,5.40
2019-05-30T00:51:21.209Z,6.83
2019-05-30T00:53:52.142Z,11.17
2019-05-30T00:56:22.895Z,11.10
2019-05-30T00:58:56.514Z,8.70
2019-05-30T01:01:27.335Z,15.13
2019-05-30T01:03:58.684Z,12.63
2019-05-30T01:06:29.407Z,12.63
2019-05-30T01:09:01.163Z,8.43
2019-05-30T01:11:33.746Z,8.47
2019-05-30T01:14:05.441Z,13.87
2019-05-30T01:16:36.337Z,7.27
2019-05-30T01:19:07.508Z,14.60
2019-05-30T01:21:39.547Z,10.80
2019-05-30T01:24:10.486Z,8.77
2019-05-30T01:26:41.164Z,16.17
2019-05-30T01:29:12.257Z,12.63
2019-05-30T01:31:43.095Z,11.73
2019-05-30T01:34:14.236Z,14.30
2019-05-30T01:36:44.976Z,10.97
2019-05-30T01:39:15.898Z,11.93
2019-05-30T01:41:46.460Z,9.10
2019-05-30T01:44:17.486Z,14.53
2019-05-30T01:46:48.245Z,14.83
2019-05-30T01:49:19.447Z,11.60
2019-05-30T01:51:51.315Z,11.63
2019-05-30T01:54:22.151Z,9.37
2019-05-30T01:56:53.913Z,14.67
2019-05-30T01:59:24.945Z,14.97
2019-05-30T02:01:55.900Z,9.50
2019-05-30T02:04:26.837Z,18.60
2019-05-30T02:06:59.095Z,13.43
2019-05-30T02:09:30.452Z,11.93
2019-05-30T02:12:01.385Z,13.47
2019-05-30T02:14:32.396Z,11.10
2019-05-30T02:17:03.648Z,19.10
2019-05-30T02:19:34.765Z,9.47
2019-05-30T02:22:05.843Z,9.27
2019-05-30T02:24:37.914Z,9.43
2019-05-30T02:27:08.705Z,14.27
2019-05-30T02:29:40.104Z,15.07
2019-05-30T02:32:11.211Z,10.43
2019-05-30T02:34:42.081Z,16.13
2019-05-30T02:37:13.034Z,14.50
2019-05-30T02:39:45.503Z,16.33
2019-05-30T02:42:17.318Z,11.10
2019-05-30T02:44:48.187Z,14.20
2019-05-30T02:47:22.311Z,12.50
2019-05-30T02:49:53.289Z,9.97
2019-05-30T02:52:24.118Z,17.47
2019-05-30T02:54:55.117Z,15.60
2019-05-30T02:57:25.835Z,11.53
2019-05-30T02:59:56.833Z,15.53
2019-05-30T03:02:27.836Z,14.27
2019-05-30T03:04:58.767Z,19.20
2019-05-30T03:07:29.582Z,12.23
2019-05-30T03:10:02.692Z,10.63
2019-05-30T03:12:33.345Z,10.20
2019-05-30T03:15:06.750Z,11.47
2019-05-30T03:17:37.576Z,10.63
2019-05-30T03:20:18.934Z,14.27
2019-05-30T03:22:42.400Z,21.13
2019-05-30T03:25:16.092Z,14.97
2019-05-30T03:27:46.636Z,12.27
2019-05-30T03:30:26.819Z,16.07
2019-05-30T03:33:29.012Z,12.87
2019-05-30T03:35:29.999Z,9.53
2019-05-30T03:37:57.364Z,16.73
2019-05-30T03:40:30.223Z,13.40
2019-05-30T03:43:03.849Z,15.37
2019-05-30T03:45:35.407Z,10.50
2019-05-30T03:48:09.830Z,17.03
2019-05-30T03:50:44.597Z,14.83
2019-05-30T03:53:16.432Z,10.20
2019-05-30T03:55:51.963Z,12.20
2019-05-30T03:58:30.221Z,8.07
2019-05-30T04:01:05.912Z,12.53
2019-05-30T04:03:42.888Z,13.67
2019-05-30T04:06:22.841Z,10.90
2019-05-30T04:08:57.964Z,10.00
2019-05-30T04:11:39.484Z,12.80
2019-05-30T04:14:15.739Z,10.33
2019-05-30T04:16:45.927Z,10.67
2019-05-30T04:19:19.375Z,7.73
2019-05-30T04:21:49.472Z,11.33
2019-05-30T04:24:20.497Z,8.07
2019-05-30T04:26:51.186Z,7.13
2019-05-30T04:29:22.097Z,8.70
2019-05-30T04:31:53.176Z,11.20
2019-05-30T04:34:24.066Z,7.60
2019-05-30T04:36:55.009Z,10.43
2019-05-30T04:39:25.826Z,4.07
2019-05-30T04:41:56.676Z,8.67
2019-05-30T04:44:27.426Z,7.67
2019-05-30T04:46:58.348Z,11.70
2019-05-30T04:49:29.278Z,8.23
2019-05-30T04:52:00.966Z,13.57
2019-05-30T04:54:31.804Z,12.23
2019-05-30T04:57:02.824Z,10.40
2019-05-30T04:59:33.869Z,6.97
2019-05-30T05:02:05.165Z,11.50
2019-05-30T05:04:36.143Z,8.37
2019-05-30T05:07:07.085Z,6.47
2019-05-30T05:09:38.013Z,12.40
2019-05-30T05:12:08.882Z,8.00
2019-05-30T05:14:39.742Z,8.10
2019-05-30T05:17:10.683Z,5.93
2019-05-30T05:19:41.676Z,8.87
2019-05-30T05:22:12.851Z,6.27
2019-05-30T05:24:43.601Z,6.63
2019-05-30T05:27:15.461Z,9.83
2019-05-30T05:29:46.640Z,8.67
2019-05-30T05:32:18.233Z,7.37
2019-05-30T05:34:52.171Z,8.17
2019-05-30T05:37:23.280Z,11.33
2019-05-30T05:39:54.467Z,7.83
2019-05-30T05:42:28.503Z,6.60
2019-05-30T05:44:59.351Z,6.87
2019-05-30T05:47:30.491Z,8.00
2019-05-30T05:50:01.237Z,9.37
2019-05-30T05:52:32.176Z,7.93
2019-05-30T05:55:03.197Z,9.83
2019-05-30T05:57:34.256Z,5.30
2019-05-30T06:00:06.406Z,4.63
2019-05-30T06:02:39.209Z,7.30
2019-05-30T06:05:10.201Z,5.57
2019-05-30T06:07:41.275Z,5.07
2019-05-30T06:10:12.419Z,6.97
2019-05-30T06:12:43.692Z,5.80
2019-05-30T06:15:14.625Z,8.07
2019-05-30T06:17:46.767Z,12.90
2019-05-30T06:20:19.087Z,5.53
2019-05-30T06:22:50.299Z,7.17
2019-05-30T06:25:23.971Z,12.00
2019-05-30T06:27:53.882Z,7.97
2019-05-30T06:30:25.020Z,5.53
2019-05-30T06:32:56.020Z,6.07
2019-05-30T06:35:27.468Z,9.60
2019-05-30T06:37:58.483Z,8.10
2019-05-30T06:40:30.860Z,6.47
2019-05-30T06:43:02.217Z,4.20
2019-05-30T06:45:33.248Z,7.63
2019-05-30T06:48:04.233Z,6.03
2019-05-30T06:50:35.242Z,4.50
2019-05-30T06:53:06.242Z,6.77
2019-05-30T06:55:37.315Z,8.93
2019-05-30T06:58:08.260Z,8.87
2019-05-30T07:00:39.401Z,4.67
2019-05-30T07:03:10.846Z,8.33
2019-05-30T07:05:42.215Z,6.50
2019-05-30T07:08:13.520Z,6.23
2019-05-30T07:10:44.684Z,7.60
2019-05-30T07:13:16.235Z,8.93
2019-05-30T07:15:47.095Z,7.70
2019-05-30T07:18:19.241Z,10.70
2019-05-30T07:20:50.290Z,8.03
2019-05-30T07:23:21.327Z,4.97
2019-05-30T07:25:52.289Z,5.73
2019-05-30T07:28:23.810Z,8.30
2019-05-30T07:30:54.993Z,7.97
2019-05-30T07:33:26.049Z,3.50
2019-05-30T07:35:57.033Z,10.50
2019-05-30T07:38:28.402Z,5.50
2019-05-30T07:40:59.423Z,4.83
2019-05-30T07:43:32.347Z,5.33
2019-05-30T07:46:04.071Z,7.97
2019-05-30T07:48:35.326Z,4.60
2019-05-30T07:51:06.364Z,3.80
2019-05-30T07:53:37.456Z,5.17
2019-05-30T07:56:08.429Z,3.73
2019-05-30T07:58:39.368Z,4.57
2019-05-30T08:01:10.458Z,6.17
2019-05-30T08:03:41.950Z,5.33
2019-05-30T08:06:12.913Z,3.67
2019-05-30T08:08:43.835Z,5.90
2019-05-30T08:11:14.977Z,5.50
2019-05-30T08:13:47.386Z,6.10
2019-05-30T08:16:18.419Z,7.80
2019-05-30T08:18:50.677Z,4.30
2019-05-30T08:21:21.720Z,5.07
2019-05-30T08:23:52.752Z,7.67
2019-05-30T08:26:23.701Z,10.03
2019-05-30T08:28:54.835Z,4.13
2019-05-30T08:31:25.830Z,6.90
2019-05-30T08:33:57.118Z,6.57
2019-05-30T08:36:28.748Z,7.60
2019-05-30T08:39:00.023Z,6.00
2019-05-30T08:41:31.184Z,6.90
2019-05-30T08:44:02.523Z,3.90
2019-05-30T08:46:33.743Z,4.90
2019-05-30T08:49:04.997Z,4.20
2019-05-30T08:51:36.251Z,5.20
2019-05-30T08:54:07.496Z,4.50
2019-05-30T08:56:38.637Z,5.40
2019-05-30T08:59:09.583Z,10.87
2019-05-30T09:01:41.973Z,7.30
2019-05-30T09:04:13.652Z,9.57
2019-05-30T09:06:44.756Z,5.73
2019-05-30T09:09:15.887Z,6.13
2019-05-30T09:11:47.042Z,6.37
2019-05-30T09:14:18.171Z,7.17
2019-05-30T09:16:49.568Z,3.50
2019-05-30T09:19:20.906Z,4.93
2019-05-30T09:21:51.888Z,8.70
2019-05-30T09:24:23.078Z,3.63
2019-05-30T09:26:54.006Z,6.10
2019-05-30T09:29:25.052Z,5.17
2019-05-30T09:31:56.110Z,6.03
2019-05-30T09:34:27.261Z,5.23
2019-05-30T09:36:58.266Z,5.53
2019-05-30T09:39:29.861Z,5.63
2019-05-30T09:42:00.843Z,5.00
2019-05-30T09:44:31.987Z,2.47
2019-05-30T09:47:02.937Z,4.07
2019-05-30T09:49:34.198Z,7.13
2019-05-30T09:52:05.249Z,12.53
2019-05-30T09:54:36.443Z,6.10
2019-05-30T09:57:07.382Z,5.60
2019-05-30T09:59:38.361Z,2.70
2019-05-30T10:02:09.413Z,5.40
2019-05-30T10:04:42.037Z,4.87
2019-05-30T10:07:13.510Z,7.50
2019-05-30T10:09:45.613Z,3.70
2019-05-30T10:12:17.913Z,5.93
2019-05-30T10:14:49.061Z,4.40
2019-05-30T10:17:20.074Z,5.33
2019-05-30T10:19:51.021Z,4.93
2019-05-30T10:22:21.800Z,3.00
2019-05-30T10:24:53.290Z,7.50
2019-05-30T10:27:24.324Z,2.90
2019-05-30T10:29:55.359Z,4.58
2019-05-30T10:32:26.326Z,3.58
2019-05-30T10:34:58.156Z,2.83
2019-05-30T10:37:29.135Z,5.80
2019-05-30T10:40:00.115Z,4.67
2019-05-30T10:42:31.152Z,7.05
2019-05-30T10:45:02.308Z,5.23
2019-05-30T10:47:34.301Z,5.97
2019-05-30T10:50:05.852Z,3.47
2019-05-30T10:52:36.871Z,5.03
2019-05-30T10:55:09.037Z,3.35
2019-05-30T10:57:39.896Z,3.77
2019-05-30T11:00:12.603Z,4.60
2019-05-30T11:02:46.048Z,3.20
2019-05-30T11:05:18.860Z,4.90
2019-05-30T11:08:04.022Z,5.22
2019-05-30T11:10:37.859Z,4.35
2019-05-30T11:13:11.617Z,3.02
2019-05-30T11:15:42.849Z,3.42
2019-05-30T11:18:13.869Z,5.35
2019-05-30T11:20:44.928Z,4.35
2019-05-30T11:23:15.993Z,3.92
2019-05-30T11:25:48.474Z,3.98
2019-05-30T11:28:19.527Z,4.28
2019-05-30T11:30:50.837Z,6.03
2019-05-30T11:33:21.885Z,2.58
2019-05-30T11:35:53.124Z,2.75
2019-05-30T11:38:24.165Z,7.95
2019-05-30T11:40:55.493Z,4.30
2019-05-30T11:43:26.659Z,5.37
2019-05-30T11:45:57.831Z,6.28
2019-05-30T11:48:28.869Z,5.17
2019-05-30T11:51:00.132Z,8.43
2019-05-30T11:53:31.173Z,3.98
2019-05-30T11:56:02.368Z,7.00
2019-05-30T11:58:33.104Z,4.25
2019-05-30T12:01:04.104Z,3.42
2019-05-30T12:03:35.190Z,3.87
2019-05-30T12:06:06.618Z,3.77
2019-05-30T12:08:37.588Z,4.20
2019-05-30T12:11:08.724Z,5.80
2019-05-30T12:13:39.699Z,5.28
2019-05-30T12:16:11.006Z,2.60
2019-05-30T12:18:42.048Z,5.37
2019-05-30T12:21:13.105Z,3.27
2019-05-30T12:23:44.136Z,2.83
2019-05-30T12:26:15.285Z,2.40
2019-05-30T12:28:46.354Z,5.10
2019-05-30T12:31:17.815Z,4.28
2019-05-30T12:33:48.725Z,3.52
2019-05-30T12:36:19.763Z,4.60
2019-05-30T12:38:50.799Z,2.87
2019-05-30T12:41:21.818Z,4.17
2019-05-30T12:43:52.977Z,5.28
2019-05-30T12:46:24.216Z,4.92
2019-05-30T12:48:55.274Z,4.50
2019-05-30T12:51:26.443Z,2.20
2019-05-30T12:53:58.484Z,6.40
2019-05-30T12:56:29.576Z,5.67
2019-05-30T12:59:01.152Z,4.65
2019-05-30T13:01:32.456Z,7.55
2019-05-30T13:04:03.487Z,2.10
2019-05-30T13:06:34.962Z,3.75
2019-05-30T13:09:08.585Z,5.40
2019-05-30T13:11:39.657Z,7.25
2019-05-30T13:14:10.582Z,4.50
2019-05-30T13:16:42.555Z,6.50
2019-05-30T13:19:13.586Z,2.85
2019-05-30T13:21:44.513Z,6.87
2019-05-30T13:24:15.464Z,2.30
2019-05-30T13:26:46.456Z,3.52
2019-05-30T13:29:17.561Z,4.10
2019-05-30T13:31:48.588Z,8.63
2019-05-30T13:34:19.521Z,4.28
2019-05-30T13:36:50.623Z,3.62
2019-05-30T13:39:21.814Z,3.60
2019-05-30T13:41:52.946Z,3.02
2019-05-30T13:44:23.909Z,6.53
2019-05-30T13:46:55.038Z,4.28
2019-05-30T13:49:25.933Z,6.30
2019-05-30T13:51:57.238Z,4.25
2019-05-30T13:54:28.259Z,4.10
2019-05-30T13:57:01.574Z,3.17
2019-05-30T13:59:32.805Z,4.33
2019-05-30T14:02:04.039Z,2.15
2019-05-30T14:04:35.005Z,3.37
2019-05-30T14:07:06.358Z,6.90
2019-05-30T14:09:37.561Z,3.90
2019-05-30T14:12:08.806Z,4.65
2019-05-30T14:14:39.662Z,5.58
2019-05-30T14:17:13.586Z,2.40
2019-05-30T14:19:44.732Z,4.50
2019-05-30T14:22:15.869Z,5.12
2019-05-30T14:24:46.815Z,5.12
2019-05-30T14:27:18.342Z,4.33
2019-05-30T14:29:49.167Z,2.62
2019-05-30T14:32:20.175Z,5.30
2019-05-30T14:34:51.216Z,4.55
2019-05-30T14:37:22.356Z,5.42
2019-05-30T14:39:53.466Z,5.90
2019-05-30T14:42:24.483Z,3.87
2019-05-30T14:44:55.454Z,4.58
2019-05-30T14:47:26.535Z,4.22
2019-05-30T14:49:57.527Z,4.17
2019-05-30T14:52:28.692Z,4.62
2019-05-30T14:54:59.594Z,5.22
2019-05-30T14:57:30.699Z,4.30
2019-05-30T15:00:01.897Z,4.83
2019-05-30T15:02:33.255Z,10.13
2019-05-30T15:05:05.296Z,4.22
2019-05-30T15:07:36.667Z,5.08
2019-05-30T15:10:08.705Z,3.72
2019-05-30T15:12:39.890Z,8.83
2019-05-30T15:15:16.536Z,3.00
2019-05-30T15:17:45.555Z,3.90
2019-05-30T15:20:17.763Z,5.08
2019-05-30T15:22:49.212Z,5.85
2019-05-30T15:25:20.396Z,3.17
2019-05-30T15:27:52.656Z,5.12
2019-05-30T15:30:23.636Z,3.62
2019-05-30T15:32:55.871Z,7.55
2019-05-30T15:35:26.843Z,2.80
2019-05-30T15:37:59.508Z,4.17
2019-05-30T15:40:30.490Z,5.22
2019-05-30T15:43:01.606Z,2.85
2019-05-30T15:45:32.584Z,3.85
2019-05-30T15:48:03.622Z,2.98
2019-05-30T15:50:34.895Z,2.92
2019-05-30T15:53:05.970Z,4.03
2019-05-30T15:55:36.930Z,3.47
2019-05-30T15:58:09.367Z,4.15
2019-05-30T16:00:40.475Z,4.85
2019-05-30T16:03:12.295Z,4.70
2019-05-30T16:05:44.341Z,5.30
2019-05-30T16:08:16.682Z,3.90
2019-05-30T16:10:47.538Z,4.65
2019-05-30T16:13:19.459Z,6.00
2019-05-30T16:15:50.650Z,3.15
2019-05-30T16:18:22.986Z,5.15
2019-05-30T16:20:53.935Z,3.45
2019-05-30T16:23:24.881Z,8.13
2019-05-30T16:25:55.695Z,4.03
2019-05-30T16:28:26.908Z,5.08
2019-05-30T16:30:58.001Z,2.70
2019-05-30T16:33:29.012Z,4.37
2019-05-30T16:35:59.971Z,3.70
2019-05-30T16:38:33.596Z,5.37
2019-05-30T16:41:04.765Z,6.35
2019-05-30T16:43:35.873Z,3.35
2019-05-30T16:46:06.916Z,4.60
2019-05-30T16:48:38.153Z,12.90
2019-05-30T16:51:09.078Z,3.60
2019-05-30T16:53:40.187Z,5.20
2019-05-30T16:56:11.080Z,3.00
2019-05-30T16:58:42.210Z,5.42
2019-05-30T17:01:13.255Z,5.85
2019-05-30T17:03:44.285Z,5.45
2019-05-30T17:06:15.861Z,4.58
2019-05-30T17:08:46.981Z,6.15
2019-05-30T17:11:17.935Z,4.42
2019-05-30T17:13:48.967Z,7.30
2019-05-30T17:16:20.211Z,3.75
2019-05-30T17:18:51.357Z,6.05
2019-05-30T17:21:22.735Z,4.42
2019-05-30T17:23:53.888Z,4.50
2019-05-30T17:26:25.334Z,8.48
2019-05-30T17:28:56.546Z,5.97
2019-05-30T17:31:28.673Z,3.85
2019-05-30T17:34:00.002Z,3.52
2019-05-30T17:36:31.107Z,4.95
2019-05-30T17:39:02.546Z,3.37
2019-05-30T17:41:35.293Z,5.55
2019-05-30T17:44:06.393Z,5.12
2019-05-30T17:46:37.319Z,4.72
2019-05-30T17:49:09.183Z,4.33
2019-05-30T17:51:40.323Z,7.65
2019-05-30T17:54:11.401Z,3.62
2019-05-30T17:56:42.403Z,6.47
2019-05-30T17:59:13.218Z,6.60
2019-05-30T18:01:47.059Z,10.48
2019-05-30T18:04:18.231Z,13.88
2019-05-30T18:06:49.221Z,7.55
2019-05-30T18:09:20.969Z,4.37
2019-05-30T18:11:52.511Z,6.90
2019-05-30T18:14:23.622Z,5.05
2019-05-30T18:16:54.634Z,3.72
2019-05-30T18:19:25.751Z,4.62
2019-05-30T18:21:56.795Z,5.87
2019-05-30T18:24:28.054Z,6.10
2019-05-30T18:27:00.132Z,7.70
2019-05-30T18:29:32.228Z,5.55
2019-05-30T18:32:03.290Z,3.77
2019-05-30T18:34:34.586Z,8.13
2019-05-30T18:37:05.462Z,5.17
2019-05-30T18:39:36.660Z,5.87
2019-05-30T18:42:07.586Z,12.40
2019-05-30T18:44:39.446Z,7.28
2019-05-30T18:47:10.751Z,6.27
2019-05-30T18:49:43.438Z,9.10
2019-05-30T18:52:17.247Z,9.00
2019-05-30T18:54:47.497Z,5.73
2019-05-30T18:57:19.114Z,8.93
2019-05-30T18:59:54.926Z,9.80
2019-05-30T19:02:27.104Z,4.70
2019-05-30T19:04:59.220Z,7.30
2019-05-30T19:07:31.420Z,10.03
2019-05-30T19:10:03.479Z,5.47
2019-05-30T19:12:34.704Z,4.27
2019-05-30T19:15:06.967Z,6.77
2019-05-30T19:17:37.934Z,5.50
2019-05-30T19:20:09.739Z,9.10
2019-05-30T19:22:41.543Z,5.63
2019-05-30T19:25:14.848Z,7.70
2019-05-30T19:27:47.718Z,5.73
2019-05-30T19:30:19.598Z,9.00
2019-05-30T19:32:50.801Z,9.43
2019-05-30T19:35:22.352Z,10.77
2019-05-30T19:37:53.261Z,8.30
2019-05-30T19:40:25.199Z,13.00
2019-05-30T19:42:56.731Z,9.23
2019-05-30T19:45:29.951Z,20.27
2019-05-30T19:48:02.603Z,13.17
2019-05-30T19:50:34.644Z,9.60
2019-05-30T19:53:06.432Z,14.50
2019-05-30T19:55:37.654Z,14.83
2019-05-30T19:58:09.341Z,13.30
2019-05-30T20:00:57.288Z,13.73
2019-05-30T20:03:13.230Z,15.93
2019-05-30T20:05:44.508Z,9.60
2019-05-30T20:08:15.334Z,14.67
2019-05-30T20:10:48.027Z,14.10
2019-05-30T20:13:19.273Z,14.63
2019-05-30T20:15:50.443Z,17.83
2019-05-30T20:18:21.548Z,14.37
2019-05-30T20:20:57.564Z,13.60
2019-05-30T20:23:25.264Z,15.90
2019-05-30T20:25:56.308Z,16.87
2019-05-30T20:28:27.352Z,13.40
2019-05-30T20:30:59.132Z,16.40
2019-05-30T20:33:30.073Z,15.70
2019-05-30T20:36:01.143Z,18.07
2019-05-30T20:38:32.263Z,11.60
2019-05-30T20:41:03.277Z,16.33
2019-05-30T20:43:34.941Z,15.97
2019-05-30T20:46:05.939Z,15.23
2019-05-30T20:48:36.974Z,18.03
2019-05-30T20:51:20.821Z,16.03
2019-05-30T20:53:47.869Z,11.67
2019-05-30T20:56:18.890Z,13.77
2019-05-30T20:58:49.859Z,11.30
2019-05-30T21:01:20.717Z,16.07
2019-05-30T21:03:51.521Z,11.77
2019-05-30T21:06:22.798Z,11.47
2019-05-30T21:08:54.354Z,12.50
2019-05-30T21:11:26.528Z,13.17
2019-05-30T21:13:57.339Z,16.17
2019-05-30T21:16:30.030Z,11.50
2019-05-30T21:19:02.008Z,13.10
2019-05-30T21:21:32.847Z,16.07
2019-05-30T21:24:03.688Z,13.20
2019-05-30T21:26:36.625Z,13.27
2019-05-30T21:29:07.605Z,14.80
2019-05-30T21:31:39.313Z,15.00
2019-05-30T21:34:10.222Z,14.10
2019-05-30T21:36:41.931Z,17.77
2019-05-30T21:39:13.337Z,12.43
2019-05-30T21:41:44.641Z,13.87
2019-05-30T21:44:15.670Z,9.37
2019-05-30T21:46:47.038Z,13.80
2019-05-30T21:49:17.976Z,13.07
2019-05-30T21:51:49.689Z,12.00
2019-05-30T21:54:21.791Z,12.67
2019-05-30T21:56:52.555Z,11.17
2019-05-30T21:59:23.480Z,15.17
2019-05-30T22:01:57.364Z,12.27
2019-05-30T22:04:26.807Z,12.73
2019-05-30T22:06:57.817Z,13.97
2019-05-30T22:09:28.810Z,13.00
2019-05-30T22:11:59.693Z,12.83
2019-05-30T22:14:30.639Z,14.87
2019-05-30T22:17:01.513Z,14.93
2019-05-30T22:19:32.514Z,15.93
2019-05-30T22:22:03.448Z,15.47
2019-05-30T22:24:34.301Z,11.83
2019-05-30T22:27:05.220Z,12.37
2019-05-30T22:29:35.975Z,14.53
2019-05-30T22:32:06.892Z,16.03
2019-05-30T22:34:37.930Z,12.43
2019-05-30T22:37:08.769Z,15.10
2019-05-30T22:39:40.140Z,14.10
2019-05-30T22:42:10.910Z,10.83
2019-05-30T22:44:41.889Z,12.43
2019-05-30T22:47:12.822Z,12.47
2019-05-30T22:49:44.619Z,15.97
2019-05-30T22:52:15.506Z,11.33
2019-05-30T22:54:47.079Z,14.80
2019-05-30T22:57:18.127Z,11.27
2019-05-30T22:59:49.175Z,15.43
2019-05-30T23:02:19.916Z,14.00
2019-05-30T23:04:50.772Z,11.57
2019-05-30T23:07:21.624Z,11.10
2019-05-30T23:09:53.843Z,12.00
2019-05-30T23:12:25.118Z,12.83
2019-05-30T23:14:56.285Z,12.70
2019-05-30T23:17:27.265Z,14.33
2019-05-30T23:19:58.231Z,17.10
2019-05-30T23:22:29.066Z,13.83
2019-05-30T23:24:59.935Z,9.40
2019-05-30T23:27:30.866Z,13.67
2019-05-30T23:30:01.779Z,16.33
2019-05-30T23:32:33.003Z,14.43
2019-05-30T23:35:03.850Z,15.27
2019-05-30T23:37:34.695Z,11.63
2019-05-30T23:40:07.063Z,17.00
2019-05-30T23:42:37.893Z,15.50
2019-05-30T23:45:08.928Z,13.80
2019-05-30T23:47:39.901Z,13.17
2019-05-30T23:50:12.455Z,14.53
2019-05-30T23:52:43.169Z,16.40
2019-05-30T23:55:14.260Z,19.73
2019-05-30T23:57:45.036Z,17.33
